createdAt,value
2022-11-19T00:02:01.620Z,99.90
2022-11-19T00:04:29.644Z,99.90
2022-11-19T00:06:57.660Z,99.90
2022-11-19T00:09:25.664Z,99.90
2022-11-19T00:12:12.436Z,99.90
2022-11-19T00:14:40.496Z,99.90
2022-11-19T00:17:08.514Z,99.90
2022-11-19T00:19:36.451Z,99.90
2022-11-19T00:22:04.422Z,99.90
2022-11-19T00:24:32.357Z,99.90
2022-11-19T00:27:01.719Z,99.90
2022-11-19T00:29:29.656Z,99.90
2022-11-19T00:31:58.657Z,99.90
2022-11-19T00:34:26.581Z,99.90
2022-11-19T00:36:54.541Z,99.90
2022-11-19T00:39:22.898Z,99.90
2022-11-19T00:41:51.056Z,99.90
2022-11-19T00:44:20.327Z,99.90
2022-11-19T00:46:48.279Z,99.90
2022-11-19T00:49:16.346Z,99.90
2022-11-19T00:51:44.365Z,99.90
2022-11-19T00:54:12.381Z,99.90
2022-11-19T00:56:40.320Z,99.90
2022-11-19T00:59:08.205Z,99.90
2022-11-19T01:01:37.562Z,99.90
2022-11-19T01:04:06.270Z,99.90
2022-11-19T01:06:34.336Z,99.90
2022-11-19T01:09:02.417Z,99.90
2022-11-19T01:11:32.660Z,99.90
2022-11-19T01:14:01.487Z,99.90
2022-11-19T01:16:32.347Z,99.90
2022-11-19T01:19:02.417Z,99.90
2022-11-19T01:21:33.168Z,99.90
2022-11-19T01:24:01.855Z,99.90
2022-11-19T01:26:30.137Z,99.90
2022-11-19T01:28:58.610Z,99.90
2022-11-19T01:31:29.140Z,99.90
2022-11-19T01:33:57.217Z,99.90
2022-11-19T01:36:28.181Z,99.90
2022-11-19T01:38:57.105Z,99.80
2022-11-19T01:41:27.111Z,99.30
2022-11-19T01:43:59.032Z,99.50
2022-11-19T01:46:28.782Z,99.90
2022-11-19T01:48:59.469Z,99.90
2022-11-19T01:51:32.287Z,99.90
2022-11-19T01:54:04.134Z,99.90
2022-11-19T01:56:33.020Z,99.90
2022-11-19T01:59:05.688Z,99.90
2022-11-19T02:01:33.970Z,99.90
2022-11-19T02:04:03.384Z,99.90
2022-11-19T02:06:33.174Z,99.90
2022-11-19T02:09:01.252Z,99.90
2022-11-19T02:11:58.964Z,99.90
2022-11-19T02:14:39.594Z,99.90
2022-11-19T02:17:18.882Z,99.90
2022-11-19T02:20:16.079Z,99.90
2022-11-19T02:23:09.501Z,99.90
2022-11-19T02:25:56.628Z,99.90
2022-11-19T02:28:34.320Z,99.90
2022-11-19T02:31:09.910Z,99.90
2022-11-19T02:33:45.277Z,99.90
2022-11-19T02:36:20.656Z,99.90
2022-11-19T02:38:53.100Z,99.90
2022-11-19T02:41:35.179Z,99.90
2022-11-19T02:44:27.863Z,99.90
2022-11-19T02:46:58.462Z,99.90
2022-11-19T02:49:30.879Z,99.90
2022-11-19T02:51:59.777Z,99.90
2022-11-19T02:54:28.094Z,99.90
2022-11-19T02:56:58.896Z,99.90
2022-11-19T02:59:50.222Z,99.90
2022-11-19T03:02:37.537Z,99.90
2022-11-19T03:05:11.483Z,99.90
2022-11-19T03:07:39.647Z,99.90
2022-11-19T03:10:11.210Z,99.90
2022-11-19T03:12:50.827Z,99.90
2022-11-19T03:15:46.748Z,99.90
2022-11-19T03:18:22.254Z,99.90
2022-11-19T03:20:56.797Z,99.90
2022-11-19T03:23:30.411Z,99.90
2022-11-19T03:26:02.465Z,99.90
2022-11-19T03:28:35.117Z,99.90
2022-11-19T03:31:05.218Z,99.90
2022-11-19T03:33:40.086Z,99.90
2022-11-19T03:36:11.879Z,99.90
2022-11-19T03:38:44.128Z,99.90
2022-11-19T03:41:16.122Z,99.90
2022-11-19T03:43:46.291Z,99.90
2022-11-19T03:46:17.099Z,99.90
2022-11-19T03:48:49.226Z,99.90
2022-11-19T03:51:21.115Z,99.90
2022-11-19T03:53:49.494Z,99.90
2022-11-19T03:56:22.982Z,99.90
2022-11-19T03:58:51.063Z,99.90
2022-11-19T04:01:19.060Z,99.90
2022-11-19T04:04:02.266Z,99.90
2022-11-19T04:06:30.216Z,99.90
2022-11-19T04:08:58.194Z,99.90
2022-11-19T04:13:52.943Z,99.90
2022-11-19T04:16:20.853Z,99.90
2022-11-19T04:18:50.133Z,99.90
2022-11-19T04:21:18.028Z,99.90
2022-11-19T04:23:45.978Z,99.90
2022-11-19T04:26:13.974Z,99.90
2022-11-19T04:28:41.877Z,99.90
2022-11-19T04:31:13.615Z,99.90
2022-11-19T04:33:45.544Z,99.90
2022-11-19T04:36:14.826Z,99.90
2022-11-19T04:38:42.828Z,99.90
2022-11-19T04:41:10.850Z,99.90
2022-11-19T04:43:38.784Z,99.90
2022-11-19T04:46:07.088Z,99.90
2022-11-19T04:48:35.108Z,99.90
2022-11-19T04:51:03.083Z,99.90
2022-11-19T04:53:32.343Z,99.90
2022-11-19T04:56:00.233Z,99.90
2022-11-19T04:58:28.269Z,99.90
2022-11-19T05:00:56.209Z,99.90
2022-11-19T05:03:24.153Z,99.90
2022-11-19T05:05:52.183Z,99.90
2022-11-19T05:08:20.135Z,99.90
2022-11-19T05:10:49.549Z,99.90
2022-11-19T05:13:17.532Z,99.90
2022-11-19T05:15:45.591Z,99.90
2022-11-19T05:18:14.057Z,99.90
2022-11-19T05:20:42.303Z,99.90
2022-11-19T05:23:10.284Z,99.90
2022-11-19T05:25:38.248Z,99.90
2022-11-19T05:28:07.605Z,99.90
2022-11-19T05:30:35.621Z,99.90
2022-11-19T05:33:03.568Z,99.90
2022-11-19T05:35:31.499Z,99.90
2022-11-19T05:37:59.429Z,99.90
2022-11-19T05:40:27.415Z,99.90
2022-11-19T05:42:55.335Z,99.90
2022-11-19T05:45:24.616Z,99.90
2022-11-19T05:47:55.972Z,99.90
2022-11-19T05:50:23.926Z,99.90
2022-11-19T05:52:52.129Z,99.90
2022-11-19T05:55:20.780Z,99.90
2022-11-19T05:57:48.785Z,99.90
2022-11-19T06:00:17.939Z,99.90
2022-11-19T06:02:47.508Z,99.90
2022-11-19T06:05:15.625Z,99.90
2022-11-19T06:07:43.606Z,99.90
2022-11-19T06:10:12.029Z,99.90
2022-11-19T06:12:45.203Z,99.90
2022-11-19T06:15:13.871Z,99.90
2022-11-19T06:17:42.008Z,99.90
2022-11-19T06:20:12.244Z,99.90
2022-11-19T06:22:40.897Z,99.90
2022-11-19T06:25:09.821Z,99.90
2022-11-19T06:27:37.750Z,99.90
2022-11-19T06:30:06.914Z,99.90
2022-11-19T06:32:34.884Z,99.90
2022-11-19T06:35:02.842Z,99.90
2022-11-19T06:37:32.126Z,99.90
2022-11-19T06:40:00.104Z,99.90
2022-11-19T06:42:37.204Z,99.90
2022-11-19T06:45:07.032Z,99.90
2022-11-19T06:47:35.283Z,99.90
2022-11-19T06:50:03.600Z,99.90
2022-11-19T06:52:32.811Z,99.90
2022-11-19T06:55:00.824Z,99.90
2022-11-19T06:57:28.813Z,99.90
2022-11-19T06:59:56.909Z,99.90
2022-11-19T07:02:24.929Z,99.90
2022-11-19T07:04:52.812Z,99.90
2022-11-19T07:07:20.791Z,99.90
2022-11-19T07:09:50.353Z,99.90
2022-11-19T07:12:18.323Z,99.90
2022-11-19T07:14:46.297Z,99.90
2022-11-19T07:17:14.275Z,99.90
2022-11-19T07:19:42.326Z,99.90
2022-11-19T07:22:10.209Z,99.90
2022-11-19T07:24:38.152Z,99.90
2022-11-19T07:27:07.479Z,99.90
2022-11-19T07:29:35.395Z,99.90
2022-11-19T07:32:03.364Z,99.90
2022-11-19T07:34:31.329Z,99.90
2022-11-19T07:36:59.301Z,99.90
2022-11-19T07:39:27.316Z,99.90
2022-11-19T07:42:12.990Z,99.90
2022-11-19T07:44:43.382Z,99.90
2022-11-19T07:47:11.471Z,99.90
2022-11-19T07:49:39.460Z,99.90
2022-11-19T07:52:07.461Z,99.90
2022-11-19T07:54:35.509Z,99.90
2022-11-19T07:57:03.630Z,99.90
2022-11-19T07:59:31.637Z,99.90
2022-11-19T08:02:01.012Z,99.90
2022-11-19T08:04:29.402Z,99.90
2022-11-19T08:06:57.402Z,99.90
2022-11-19T08:09:25.311Z,99.90
2022-11-19T08:11:53.250Z,99.90
2022-11-19T08:14:21.211Z,99.90
2022-11-19T08:17:06.817Z,99.90
2022-11-19T08:19:36.491Z,99.90
2022-11-19T08:22:05.757Z,99.90
2022-11-19T08:24:33.784Z,99.90
2022-11-19T08:27:02.733Z,99.90
2022-11-19T08:29:30.810Z,99.90
2022-11-19T08:31:58.772Z,99.90
2022-11-19T08:34:26.697Z,99.90
2022-11-19T08:36:55.945Z,99.90
2022-11-19T08:39:23.872Z,99.90
2022-11-19T08:42:09.118Z,99.90
2022-11-19T08:44:37.171Z,99.90
2022-11-19T08:47:05.199Z,99.90
2022-11-19T08:49:33.194Z,99.90
2022-11-19T08:52:02.665Z,99.90
2022-11-19T08:54:30.627Z,99.90
2022-11-19T08:56:58.671Z,99.90
2022-11-19T08:59:26.638Z,99.90
2022-11-19T09:01:54.588Z,99.90
2022-11-19T09:04:22.894Z,99.90
2022-11-19T09:06:51.017Z,99.90
2022-11-19T09:09:20.920Z,99.90
2022-11-19T09:11:48.843Z,99.90
2022-11-19T09:14:16.897Z,99.90
2022-11-19T09:16:44.929Z,99.90
2022-11-19T09:19:13.007Z,99.90
2022-11-19T09:21:40.890Z,99.90
2022-11-19T09:24:09.097Z,99.90
2022-11-19T09:26:38.385Z,99.90
2022-11-19T09:29:06.442Z,99.90
2022-11-19T09:31:34.436Z,99.90
2022-11-19T09:34:03.823Z,99.90
2022-11-19T09:36:31.769Z,99.90
2022-11-19T09:39:02.061Z,99.90
2022-11-19T09:41:51.016Z,99.90
2022-11-19T09:44:41.816Z,99.90
2022-11-19T09:47:23.855Z,99.90
2022-11-19T09:50:03.708Z,99.90
2022-11-19T09:52:34.381Z,99.90
2022-11-19T09:55:03.329Z,99.90
2022-11-19T09:57:39.848Z,99.90
2022-11-19T10:00:09.625Z,99.90
2022-11-19T10:02:40.505Z,99.90
2022-11-19T10:05:09.330Z,99.90
2022-11-19T10:07:45.527Z,99.90
2022-11-19T10:10:26.018Z,99.90
2022-11-19T10:13:17.478Z,99.90
2022-11-19T10:16:01.833Z,99.90
2022-11-19T10:18:39.025Z,99.90
2022-11-19T10:21:15.021Z,99.70
2022-11-19T10:23:51.148Z,98.10
2022-11-19T10:26:24.741Z,99.30
2022-11-19T10:28:57.547Z,99.90
2022-11-19T10:31:35.850Z,99.90
2022-11-19T10:34:12.639Z,99.90
2022-11-19T10:36:43.588Z,99.90
2022-11-19T10:39:19.181Z,99.90
2022-11-19T10:41:52.685Z,99.90
2022-11-19T10:44:41.214Z,99.90
2022-11-19T10:47:17.344Z,99.90
2022-11-19T10:49:45.796Z,99.90
2022-11-19T10:52:25.105Z,98.70
2022-11-19T10:54:56.459Z,97.90
2022-11-19T10:57:24.997Z,97.90
2022-11-19T10:59:55.922Z,98.90
2022-11-19T11:02:30.553Z,99.10
2022-11-19T11:05:06.712Z,99.00
2022-11-19T11:07:53.242Z,99.40
2022-11-19T11:10:36.531Z,99.90
2022-11-19T11:13:35.866Z,99.90
2022-11-19T11:16:11.764Z,99.90
2022-11-19T11:18:41.562Z,99.90
2022-11-19T11:21:13.773Z,99.90
2022-11-19T11:23:51.925Z,99.90
2022-11-19T11:26:24.545Z,99.70
2022-11-19T11:29:04.509Z,99.40
2022-11-19T11:31:40.073Z,98.70
2022-11-19T11:34:15.615Z,98.70
2022-11-19T11:36:45.293Z,99.90
2022-11-19T11:39:28.479Z,98.70
2022-11-19T11:42:07.471Z,97.10
2022-11-19T11:44:39.367Z,96.60
2022-11-19T11:47:16.513Z,97.20
2022-11-19T11:49:46.299Z,97.60
2022-11-19T11:52:20.971Z,97.80
2022-11-19T11:55:00.589Z,96.50
2022-11-19T11:57:30.444Z,96.20
2022-11-19T11:59:58.737Z,96.70
2022-11-19T12:02:31.303Z,96.80
2022-11-19T12:05:02.452Z,96.10
2022-11-19T12:08:04.145Z,96.40
2022-11-19T12:10:42.811Z,93.70
2022-11-19T12:13:49.220Z,94.00
2022-11-19T12:16:28.107Z,94.40
2022-11-19T12:19:12.692Z,93.30
2022-11-19T12:21:51.176Z,93.00
2022-11-19T12:24:39.234Z,89.50
2022-11-19T12:27:16.208Z,87.10
2022-11-19T12:29:57.085Z,86.40
2022-11-19T12:32:55.552Z,88.30
2022-11-19T12:35:53.174Z,88.60
2022-11-19T12:38:35.224Z,89.10
2022-11-19T12:41:15.767Z,91.80
2022-11-19T12:43:53.728Z,92.60
2022-11-19T12:46:44.121Z,93.10
2022-11-19T12:49:42.441Z,93.40
2022-11-19T12:52:36.162Z,93.20
2022-11-19T12:55:12.744Z,92.80
2022-11-19T12:57:48.327Z,92.70
2022-11-19T13:00:19.861Z,91.70
2022-11-19T13:02:56.212Z,90.60
2022-11-19T13:05:31.831Z,91.40
2022-11-19T13:08:08.520Z,90.50
2022-11-19T13:10:39.644Z,90.70
2022-11-19T13:13:09.476Z,90.80
2022-11-19T13:15:41.307Z,88.70
2022-11-19T13:18:14.692Z,88.10
2022-11-19T13:20:47.925Z,87.40
2022-11-19T13:23:28.712Z,89.20
2022-11-19T13:26:00.219Z,89.30
2022-11-19T13:28:34.715Z,88.50
2022-11-19T13:31:08.249Z,89.50
2022-11-19T13:33:41.272Z,88.00
2022-11-19T13:36:19.515Z,88.70
2022-11-19T13:38:54.129Z,88.70
2022-11-19T13:41:27.007Z,88.70
2022-11-19T13:44:14.581Z,89.50
2022-11-19T13:46:47.233Z,90.30
2022-11-19T13:49:21.673Z,91.00
2022-11-19T13:51:53.829Z,91.10
2022-11-19T13:54:26.276Z,92.00
2022-11-19T13:56:57.960Z,92.10
2022-11-19T13:59:31.217Z,92.50
2022-11-19T14:02:46.072Z,92.80
2022-11-19T14:05:39.501Z,93.00
2022-11-19T14:08:19.670Z,93.30
2022-11-19T14:11:05.556Z,93.70
2022-11-19T14:14:32.741Z,93.90
2022-11-19T14:17:25.107Z,94.50
2022-11-19T14:20:13.259Z,94.40
2022-11-19T14:23:00.326Z,94.70
2022-11-19T14:26:05.476Z,95.20
2022-11-19T14:28:46.354Z,95.20
2022-11-19T14:31:15.233Z,95.40
2022-11-19T14:33:58.641Z,95.70
2022-11-19T14:36:38.081Z,96.50
2022-11-19T14:39:15.305Z,97.00
2022-11-19T14:41:45.364Z,97.50
2022-11-19T14:44:33.973Z,97.70
2022-11-19T14:47:33.786Z,98.20
2022-11-19T14:50:05.009Z,99.00
2022-11-19T14:52:35.969Z,99.60
2022-11-19T14:55:18.158Z,99.90
2022-11-19T14:57:56.090Z,99.90
2022-11-19T15:00:31.966Z,99.90
2022-11-19T15:03:02.041Z,99.90
2022-11-19T15:05:33.252Z,99.90
2022-11-19T15:08:30.953Z,99.90
2022-11-19T15:11:07.543Z,99.90
2022-11-19T15:13:36.742Z,99.90
2022-11-19T15:16:11.738Z,99.90
2022-11-19T15:19:21.982Z,99.90
2022-11-19T15:22:12.305Z,99.90
2022-11-19T15:24:57.812Z,99.90
2022-11-19T15:27:40.438Z,99.90
2022-11-19T15:30:15.961Z,99.90
2022-11-19T15:33:10.899Z,99.90
2022-11-19T15:36:08.226Z,99.90
2022-11-19T15:38:40.699Z,99.90
2022-11-19T15:41:13.369Z,99.90
2022-11-19T15:43:44.874Z,99.90
2022-11-19T15:46:15.936Z,99.90
2022-11-19T15:48:57.860Z,99.90
2022-11-19T15:51:26.027Z,99.90
2022-11-19T15:54:02.788Z,99.90
2022-11-19T15:56:34.162Z,99.90
2022-11-19T15:59:03.742Z,99.90
2022-11-19T16:01:34.342Z,99.90
2022-11-19T16:04:10.106Z,99.90
2022-11-19T16:06:40.110Z,99.90
2022-11-19T16:09:08.722Z,99.90
2022-11-19T16:11:56.357Z,99.90
2022-11-19T16:14:43.776Z,99.90
2022-11-19T16:17:31.446Z,99.90
2022-11-19T16:20:17.984Z,99.90
2022-11-19T16:22:50.131Z,99.90
2022-11-19T16:25:27.121Z,99.90
2022-11-19T16:27:58.619Z,99.90
2022-11-19T16:30:29.306Z,99.90
2022-11-19T16:32:59.051Z,99.90
2022-11-19T16:35:30.247Z,99.90
2022-11-19T16:38:00.299Z,99.90
2022-11-19T16:40:50.132Z,99.90
2022-11-19T16:43:18.108Z,99.90
2022-11-19T16:45:47.660Z,99.90
2022-11-19T16:48:58.459Z,99.90
2022-11-19T16:51:38.055Z,99.90
2022-11-19T16:54:08.181Z,99.90
2022-11-19T16:56:40.961Z,99.90
2022-11-19T16:59:17.424Z,99.90
2022-11-19T17:01:52.533Z,99.90
2022-11-19T17:04:21.422Z,99.90
2022-11-19T17:06:51.191Z,99.90
2022-11-19T17:09:37.031Z,99.90
2022-11-19T17:12:21.926Z,99.90
2022-11-19T17:14:52.605Z,99.90
2022-11-19T17:17:44.187Z,99.90
2022-11-19T17:21:00.106Z,99.80
2022-11-19T17:23:31.303Z,99.90
2022-11-19T17:26:00.637Z,99.90
2022-11-19T17:28:37.982Z,99.90
2022-11-19T17:31:14.853Z,99.90
2022-11-19T17:33:51.516Z,99.90
2022-11-19T17:36:19.953Z,99.90
2022-11-19T17:38:49.806Z,99.90
2022-11-19T17:41:40.850Z,99.90
2022-11-19T17:44:30.980Z,99.50
2022-11-19T17:46:59.150Z,99.10
2022-11-19T17:49:27.182Z,98.90
2022-11-19T17:51:56.073Z,98.80
2022-11-19T17:54:25.496Z,99.30
2022-11-19T17:56:53.570Z,99.00
2022-11-19T17:59:21.501Z,99.00
2022-11-19T18:01:49.624Z,98.10
2022-11-19T18:04:18.304Z,97.90
2022-11-19T18:06:47.293Z,97.60
2022-11-19T18:09:15.218Z,98.00
2022-11-19T18:11:44.520Z,97.90
2022-11-19T18:14:13.040Z,97.80
2022-11-19T18:16:42.655Z,97.70
2022-11-19T18:19:23.663Z,97.80
2022-11-19T18:21:52.400Z,97.70
2022-11-19T18:24:20.348Z,97.80
2022-11-19T18:26:49.728Z,97.80
2022-11-19T18:29:17.686Z,97.70
2022-11-19T18:31:47.730Z,96.80
2022-11-19T18:34:18.938Z,96.60
2022-11-19T18:36:47.038Z,96.90
2022-11-19T18:39:15.116Z,97.00
2022-11-19T18:41:43.560Z,96.90
2022-11-19T18:44:33.019Z,97.50
2022-11-19T18:47:01.795Z,97.00
2022-11-19T18:49:30.050Z,96.80
2022-11-19T18:51:58.289Z,96.40
2022-11-19T18:54:26.274Z,95.70
2022-11-19T18:56:54.335Z,95.80
2022-11-19T18:59:23.899Z,95.70
2022-11-19T19:01:55.614Z,95.60
2022-11-19T19:04:24.191Z,95.50
2022-11-19T19:06:52.602Z,94.80
2022-11-19T19:09:21.502Z,95.30
2022-11-19T19:12:13.115Z,95.00
2022-11-19T19:14:43.314Z,95.20
2022-11-19T19:17:11.589Z,95.00
2022-11-19T19:19:39.987Z,95.10
2022-11-19T19:22:08.667Z,94.70
2022-11-19T19:24:36.753Z,94.80
2022-11-19T19:27:05.627Z,94.80
2022-11-19T19:29:33.926Z,94.80
2022-11-19T19:32:03.648Z,94.70
2022-11-19T19:34:31.648Z,94.90
2022-11-19T19:36:59.725Z,95.30
2022-11-19T19:39:27.690Z,95.40
2022-11-19T19:41:55.714Z,95.60
2022-11-19T19:44:23.666Z,95.10
2022-11-19T19:46:51.697Z,95.20
2022-11-19T19:49:21.476Z,95.00
2022-11-19T19:51:50.919Z,94.80
2022-11-19T19:54:18.903Z,95.10
2022-11-19T19:56:46.939Z,94.90
2022-11-19T19:59:15.316Z,94.60
2022-11-19T20:01:47.492Z,94.90
2022-11-19T20:04:15.681Z,95.00
2022-11-19T20:06:48.418Z,94.80
2022-11-19T20:09:16.726Z,94.80
2022-11-19T20:11:45.015Z,95.20
2022-11-19T20:14:13.233Z,95.40
2022-11-19T20:16:42.970Z,95.20
2022-11-19T20:19:14.764Z,95.20
2022-11-19T20:21:43.419Z,95.20
2022-11-19T20:24:13.664Z,95.00
2022-11-19T20:26:43.110Z,94.80
2022-11-19T20:29:13.911Z,93.80
2022-11-19T20:31:46.245Z,93.90
2022-11-19T20:34:15.173Z,93.10
2022-11-19T20:36:47.233Z,93.20
2022-11-19T20:39:16.909Z,93.10
2022-11-19T20:42:03.362Z,93.20
2022-11-19T20:44:31.551Z,93.70
2022-11-19T20:47:02.097Z,93.60
2022-11-19T20:49:32.129Z,93.90
2022-11-19T20:52:00.540Z,93.50
2022-11-19T20:54:30.202Z,93.30
2022-11-19T20:56:58.669Z,93.60
2022-11-19T20:59:27.877Z,93.60
2022-11-19T21:01:57.245Z,93.60
2022-11-19T21:04:27.227Z,93.80
2022-11-19T21:06:55.515Z,93.40
2022-11-19T21:09:24.072Z,93.10
2022-11-19T21:11:53.857Z,93.30
2022-11-19T21:14:22.037Z,93.10
2022-11-19T21:16:50.100Z,92.90
2022-11-19T21:19:18.374Z,92.60
2022-11-19T21:21:46.885Z,92.20
2022-11-19T21:24:15.150Z,92.40
2022-11-19T21:26:43.137Z,92.40
2022-11-19T21:29:12.581Z,92.30
2022-11-19T21:31:42.245Z,92.60
2022-11-19T21:34:11.869Z,92.30
2022-11-19T21:36:41.865Z,92.40
2022-11-19T21:39:10.392Z,92.70
2022-11-19T21:41:39.069Z,92.70
2022-11-19T21:44:07.536Z,92.60
2022-11-19T21:46:37.156Z,92.60
2022-11-19T21:49:06.132Z,92.60
2022-11-19T21:51:34.108Z,92.40
2022-11-19T21:54:02.146Z,92.10
2022-11-19T21:56:35.299Z,92.10
2022-11-19T21:59:05.141Z,91.80
2022-11-19T22:01:33.117Z,91.90
2022-11-19T22:04:02.484Z,92.00
2022-11-19T22:06:31.704Z,92.20
2022-11-19T22:08:59.752Z,92.50
2022-11-19T22:11:30.861Z,92.50
2022-11-19T22:14:01.160Z,92.10
2022-11-19T22:16:29.831Z,92.20
2022-11-19T22:18:57.886Z,92.10
2022-11-19T22:21:28.941Z,92.00
2022-11-19T22:23:56.985Z,92.10
2022-11-19T22:26:25.339Z,92.00
2022-11-19T22:28:53.223Z,92.20
2022-11-19T22:31:21.183Z,92.10
2022-11-19T22:33:51.578Z,92.50
2022-11-19T22:36:21.587Z,92.70
2022-11-19T22:38:51.788Z,92.70
2022-11-19T22:41:21.618Z,92.80
2022-11-19T22:43:50.174Z,93.10
2022-11-19T22:46:18.889Z,93.60
2022-11-19T22:48:46.860Z,93.40
2022-11-19T22:51:16.904Z,93.60
2022-11-19T22:53:45.784Z,93.90
2022-11-19T22:56:17.906Z,94.20
2022-11-19T22:58:45.992Z,94.30
2022-11-19T23:01:17.556Z,94.20
2022-11-19T23:03:46.371Z,94.20
2022-11-19T23:06:14.399Z,94.60
2022-11-19T23:08:42.541Z,95.00
2022-11-19T23:11:10.940Z,94.80
2022-11-19T23:13:41.688Z,95.10
2022-11-19T23:16:11.992Z,95.30
2022-11-19T23:18:42.634Z,95.50
2022-11-19T23:21:12.866Z,95.50
2022-11-19T23:23:41.487Z,95.60
2022-11-19T23:26:11.643Z,95.50
2022-11-19T23:28:41.490Z,95.50
2022-11-19T23:31:11.724Z,95.40
2022-11-19T23:33:39.702Z,95.50
2022-11-19T23:36:11.070Z,95.80
2022-11-19T23:38:39.866Z,95.80
2022-11-19T23:41:09.799Z,95.80
2022-11-19T23:43:38.417Z,95.70
2022-11-19T23:46:10.208Z,95.50
2022-11-19T23:48:39.047Z,95.60
2022-11-19T23:51:08.669Z,95.70
2022-11-19T23:53:36.954Z,95.50
2022-11-19T23:56:06.202Z,95.20
2022-11-19T23:58:35.101Z,95.30
